Terminal Aerodrome Forecast
Issued by NWS

Home | Current Version | Previous Version | Text Only | Print | Product List | Glossary On
Versions: 1 2 3 4 5 6 7 8 9 10 11 12 13 14 15 16 17 18 19 20
000
FTPQ31 PGUM 171837 RRI
TAFTPN
TAF
PTPN 171837Z 1719/1818 13008KT P6SM VCSH SCT018 SCT130
      TEMPO 1720/1723 08015KT 3SM SHRA BKN017 OVC070=

USA.gov is the U.S. government's official web portal to all federal, state and local government web resources and services.